Time;durP1;ratioP1;P1;durP2;ratioP2;P2;SDS_P1;SDS_P2;PMS_P1;PMS_P2;Temp;Humidity;BMP_temperature;BMP_pressure;BME280_temperature;BME280_humidity;BME280_pressure;Samples;Min_cycle;Max_cycle;Signal;HPM_P1;HPM_P2
2023/11/24 00:00:16;;;;;;;;;;;;;;;;;;;;;
2023/11/24 00:27:16;;;;;;;;;;;;;;;;;;;;;
2023/11/24 00:44:02;;;;;;;;;;;;;;;;;;;;;
2023/11/24 01:00:55;;;;;;;;;;;;;;;;;;;;;
2023/11/24 04:08:14;;;;;;;;;;;;;;;;;;;;;
2023/11/24 04:28:58;;;;;;;;;;;;;;;;;;;;;
2023/11/24 05:42:22;;;;;;;;;;;;;;;;;;;;;
2023/11/24 06:28:34;;;;;;;;;;;;;;;;;;;;;
2023/11/24 06:31:03;;;;;;;;;0.00;0.00;;;;;13.93;100.00;101607.84;6252652;22;72817;-93
2023/11/24 06:33:38;;;;;;;;;0.00;0.00;;;;;14.00;100.00;101606.72;6252880;22;45187;-90
2023/11/24 06:36:03;;;;;;;;;0.00;0.00;;;;;14.02;100.00;101611.94;6251569;22;45393;-83
2023/11/24 06:38:29;;;;;;;;;0.00;0.00;;;;;13.99;100.00;101605.03;6250459;22;46906;-86
2023/11/24 06:40:55;;;;;;;;;0.00;0.00;;;;;14.01;100.00;101620.69;6249156;22;45291;-86
2023/11/24 06:43:21;;;;;;;;;0.00;0.00;;;;;13.99;100.00;101620.75;6250315;22;45334;-85
2023/11/24 06:45:46;;;;;;;;;0.00;0.00;;;;;14.00;100.00;101605.88;6252353;22;45285;-85
2023/11/24 06:48:12;;;;;;;;;0.00;0.00;;;;;14.06;100.00;101605.69;6249834;22;67722;-85
2023/11/24 06:50:37;;;;;;;;;0.00;0.00;;;;;14.07;100.00;101602.19;6249566;22;45302;-84
2023/11/24 06:53:02;;;;;;;;;0.00;0.00;;;;;14.07;100.00;101603.03;6250336;22;65559;-86
2023/11/24 06:55:28;;;;;;;;;0.00;0.00;;;;;14.07;100.00;101599.56;6248139;22;67407;-85
2023/11/24 06:57:53;;;;;;;;;0.00;0.00;;;;;14.02;100.00;101594.47;6248220;22;75226;-84
2023/11/24 07:00:20;;;;;;;;;0.00;0.00;;;;;14.06;100.00;101600.47;6275039;22;45392;-86
2023/11/24 07:02:48;;;;;;;;;0.00;0.00;;;;;14.09;100.00;101608.22;6250701;22;45265;-87
2023/11/24 07:05:15;;;;;;;;;0.00;0.00;;;;;14.07;100.00;101608.28;6224142;22;45623;-87
2023/11/24 07:07:40;;;;;;;;;0.00;0.00;;;;;14.09;100.00;101609.06;6276485;22;47292;-88
2023/11/24 07:10:14;;;;;;;;;0.00;0.00;;;;;14.08;100.00;101602.16;6224341;22;63112;-91
2023/11/24 07:12:52;;;;;;;;;;;;;;;;;;;;;
2023/11/24 07:36:38;;;;;;;;;;;;;;;;;;;;;
2023/11/24 07:39:54;;;;;;;;;;;;;;;;;;;;;
2023/11/24 07:45:48;;;;;;;;;0.00;0.00;;;;;13.82;100.00;101644.78;5786850;24;46873;-86
2023/11/24 07:52:38;;;;;;;;;;;;;;;;;;;;;
2023/11/24 08:44:44;;;;;;;;;0.00;0.00;;;;;13.81;100.00;101657.91;6248891;22;1591819;-86
2023/11/24 08:47:10;;;;;;;;;0.00;0.00;;;;;13.70;100.00;101639.88;6284864;22;45291;-86
2023/11/24 08:49:35;;;;;;;;;0.00;0.00;;;;;13.84;100.00;101650.81;6311102;22;46017;-85
2023/11/24 08:52:11;;;;;;;;;0.00;0.00;;;;;13.88;100.00;101646.38;6310467;22;45663;-88
2023/11/24 08:54:39;;;;;;;;;0.00;0.00;;;;;13.82;100.00;101638.66;6311170;22;45552;-88
2023/11/24 08:57:05;;;;;;;;;1.00;1.00;;;;;14.03;100.00;101639.84;6310198;22;45329;-84
2023/11/24 08:59:38;;;;;;;;;0.00;0.00;;;;;13.79;100.00;101634.38;6311995;22;45369;-89
2023/11/24 09:02:06;;;;;;;;;0.00;0.00;;;;;13.70;100.00;101629.41;6310487;22;45345;-86
2023/11/24 09:04:32;;;;;;;;;0.00;0.00;;;;;13.71;100.00;101633.75;6312486;22;45324;-87
2023/11/24 09:07:00;;;;;;;;;0.00;0.00;;;;;13.78;100.00;101637.03;6310462;22;45372;-85
2023/11/24 09:09:36;;;;;;;;;;;;;;;;;;;;;
2023/11/24 09:12:06;;;;;;;;;0.00;0.00;;;;;13.72;100.00;101643.31;6300041;22;73050;-84
2023/11/24 09:14:36;;;;;;;;;0.00;0.00;;;;;13.72;100.00;101638.94;6303369;22;45324;-86
2023/11/24 09:17:03;;;;;;;;;0.00;0.00;;;;;13.73;100.00;101635.41;6303645;22;45236;-87
2023/11/24 09:19:36;;;;;;;;;0.00;0.00;;;;;13.71;100.00;101637.22;6329227;22;48356;-86
2023/11/24 09:22:29;;;;;;;;;0.00;0.00;;;;;13.70;100.00;101637.25;6305642;22;45403;-95
2023/11/24 09:25:04;;;;;;;;;;;;;;;;;;;;;
2023/11/24 09:27:34;;;;;;;;;0.00;0.00;;;;;13.71;100.00;101626.75;6297978;22;69668;-89
2023/11/24 09:30:01;;;;;;;;;0.00;0.00;;;;;13.70;100.00;101619.78;6301344;22;46663;-90
2023/11/24 09:33:23;;;;;;;;;;;;;;;;;;;;;
2023/11/24 09:36:37;;;;;;;;;;;;;;;;;;;;;
2023/11/24 09:39:06;;;;;;;;;0.00;0.00;;;;;13.79;100.00;101638.78;6269830;22;70854;-87
2023/11/24 09:41:41;;;;;;;;;0.00;0.00;;;;;13.72;100.00;101644.19;6252125;22;46971;-88
2023/11/24 09:44:40;;;;;;;;;0.00;0.00;;;;;13.72;100.00;101632.84;6276713;22;45259;-89
2023/11/24 09:47:06;;;;;;;;;0.50;0.50;;;;;13.78;100.00;101631.81;6275506;22;45311;-88
2023/11/24 09:49:32;;;;;;;;;1.00;1.00;;;;;13.77;100.00;101651.03;6269514;22;45539;-92
2023/11/24 09:51:59;;;;;;;;;0.00;0.00;;;;;13.75;100.00;101645.84;6244626;22;46609;-90
2023/11/24 09:54:26;;;;;;;;;0.00;0.00;;;;;13.79;100.00;101649.25;6240049;22;45704;-89
2023/11/24 09:56:52;;;;;;;;;0.00;0.00;;;;;13.74;100.00;101642.38;6245588;22;45446;-90
2023/11/24 09:59:44;;;;;;;;;0.00;0.00;;;;;13.77;100.00;101632.72;6269442;22;45710;-94
2023/11/24 10:02:15;;;;;;;;;0.00;0.00;;;;;13.81;100.00;101634.34;6249042;22;45966;-88
2023/11/24 10:04:43;;;;;;;;;0.00;0.00;;;;;13.84;100.00;101640.34;6244024;22;45262;-87
2023/11/24 10:07:20;;;;;;;;;0.00;0.00;;;;;13.80;100.00;101624.78;6243461;22;45718;-88
2023/11/24 10:09:52;;;;;;;;;0.00;0.00;;;;;13.81;100.00;101618.66;6244518;22;45439;-88
2023/11/24 10:12:17;;;;;;;;;0.00;0.00;;;;;13.82;100.00;101618.59;6218288;22;48056;-89
2023/11/24 10:14:43;;;;;;;;;0.00;0.00;;;;;13.86;100.00;101627.22;6245624;22;45369;-88
2023/11/24 10:17:10;;;;;;;;;0.00;0.00;;;;;13.78;100.00;101619.59;6304329;22;45781;-89
2023/11/24 10:19:38;;;;;;;;;0.00;0.00;;;;;13.75;100.00;101622.28;6300471;22;45427;-91
2023/11/24 10:22:03;;;;;;;;;0.00;0.00;;;;;13.72;100.00;101611.91;6303497;22;45381;-88
2023/11/24 10:24:38;;;;;;;;;0.00;0.00;;;;;13.74;100.00;101624.06;6277602;22;45887;-89
2023/11/24 10:27:26;;;;;;;;;0.00;0.00;;;;;13.72;100.00;101604.06;6305108;22;45435;-86
2023/11/24 10:29:53;;;;;;;;;0.00;0.00;;;;;13.79;100.00;101604.75;6278832;22;45243;-88
2023/11/24 10:32:22;;;;;;;;;0.00;0.00;;;;;13.67;100.00;101593.75;6303461;22;45250;-89
2023/11/24 10:34:48;;;;;;;;;0.00;0.00;;;;;13.58;100.00;101591.38;6303737;22;45356;-91
2023/11/24 10:37:19;;;;;;;;;0.00;0.00;;;;;13.66;100.00;101602.47;6275747;22;45696;-91
2023/11/24 10:39:48;;;;;;;;;0.00;0.00;;;;;13.67;100.00;101601.59;6304897;22;45529;-94
2023/11/24 10:42:15;;;;;;;;;0.00;0.00;;;;;13.81;100.00;101585.47;6305040;22;45368;-91
2023/11/24 10:44:43;;;;;;;;;0.00;0.00;;;;;13.96;100.00;101585.94;6329866;22;45373;-91
2023/11/24 10:47:13;;;;;;;;;0.00;0.00;;;;;14.05;100.00;101575.19;6335756;22;45480;-92
2023/11/24 10:49:50;;;;;;;;;3.00;0.00;;;;;14.10;100.00;101563.69;6308263;22;45444;-88
2023/11/24 10:52:22;;;;;;;;;0.00;0.00;;;;;14.23;100.00;101556.31;6308121;22;45290;-88
2023/11/24 10:54:59;;;;;;;;;0.00;0.00;;;;;14.37;100.00;101561.09;6307155;22;45889;-88
2023/11/24 10:57:26;;;;;;;;;0.00;0.00;;;;;14.47;100.00;101554.69;6307344;22;45457;-89
2023/11/24 11:00:02;;;;;;;;;;;;;;;;;;;;;
2023/11/24 11:02:32;;;;;;;;;0.00;0.00;;;;;14.75;100.00;101553.81;6309021;22;75279;-88
2023/11/24 11:05:18;;;;;;;;;0.00;0.00;;;;;14.71;100.00;101528.63;6308625;22;45390;-88
2023/11/24 11:07:55;;;;;;;;;0.00;0.00;;;;;14.60;100.00;101547.31;6311209;22;45353;-88
2023/11/24 11:10:26;;;;;;;;;0.00;0.00;;;;;14.49;100.00;101536.28;6309800;22;45373;-88
2023/11/24 11:12:53;;;;;;;;;0.00;0.00;;;;;14.40;100.00;101534.81;6282811;22;47194;-86
2023/11/24 11:15:25;;;;;;;;;0.00;0.00;;;;;14.27;100.00;101539.59;6308991;22;45357;-89
2023/11/24 11:18:16;;;;;;;;;0.00;0.00;;;;;14.19;100.00;101540.72;6309747;22;45522;-87
2023/11/24 11:20:44;;;;;;;;;0.00;0.00;;;;;14.04;100.00;101529.84;6219459;22;45479;-89
2023/11/24 11:23:12;;;;;;;;;0.00;0.00;;;;;14.01;100.00;101523.84;6247071;22;46410;-88
2023/11/24 11:25:39;;;;;;;;;1.00;0.00;;;;;14.04;100.00;101515.88;6218308;22;45840;-86
2023/11/24 11:28:36;;;;;;;;;0.00;0.00;;;;;14.12;100.00;101532.22;6229504;22;45280;-94
2023/11/24 11:31:43;;;;;;;;;;;;;;;;;;;;;
2023/11/24 11:34:30;;;;;;;;;0.00;0.00;;;;;13.96;100.00;101507.41;6214029;22;75410;-93
2023/11/24 11:37:34;;;;;;;;;0.00;0.00;;;;;13.94;100.00;101510.09;6242364;22;45419;-93
2023/11/24 11:40:12;;;;;;;;;0.00;0.00;;;;;13.83;100.00;101505.16;6217026;22;45529;-93
2023/11/24 11:43:04;;;;;;;;;0.00;0.00;;;;;13.75;100.00;101499.31;6216745;22;45465;-86
2023/11/24 11:45:36;;;;;;;;;0.00;0.00;;;;;13.66;100.00;101513.53;6241584;22;46243;-90
2023/11/24 11:48:04;;;;;;;;;0.00;0.00;;;;;13.56;100.00;101509.47;6216727;22;45294;-90
2023/11/24 11:50:36;;;;;;;;;0.00;0.00;;;;;13.64;100.00;101507.47;6214890;22;45465;-89
2023/11/24 11:53:16;;;;;;;;;;;;;;;;;;;;;
2023/11/24 11:55:45;;;;;;;;;0.00;0.00;;;;;13.40;100.00;101497.75;6217125;22;73801;-89
2023/11/24 11:58:14;;;;;;;;;0.00;0.00;;;;;13.38;100.00;101508.25;6282543;22;45686;-88
2023/11/24 12:00:49;;;;;;;;;0.00;0.00;;;;;13.30;100.00;101490.16;6308954;22;45707;-86
2023/11/24 12:03:19;;;;;;;;;0.00;0.00;;;;;13.35;100.00;101498.72;6309121;22;45561;-86
2023/11/24 12:06:02;;;;;;;;;;;;;;;;;;;;;
2023/11/24 12:08:28;;;;;;;;;0.00;0.00;;;;;13.25;100.00;101489.38;6336085;22;73058;-87
2023/11/24 12:10:53;;;;;;;;;0.00;0.00;;;;;13.29;100.00;101493.63;6308369;22;45266;-85
2023/11/24 12:13:21;;;;;;;;;1.00;1.00;;;;;13.25;100.00;101486.78;6308529;22;45348;-86
2023/11/24 12:15:52;;;;;;;;;0.00;0.00;;;;;13.19;100.00;101486.97;6334024;22;45408;-87
2023/11/24 12:18:18;;;;;;;;;0.00;0.00;;;;;13.20;100.00;101498.25;6282506;22;45231;-84
2023/11/24 12:20:53;;;;;;;;;0.00;0.00;;;;;13.06;100.00;101480.34;6308906;22;45350;-86
2023/11/24 12:23:19;;;;;;;;;0.00;0.00;;;;;13.11;100.00;101479.31;6282424;22;45365;-87
2023/11/24 12:25:45;;;;;;;;;0.00;0.00;;;;;13.14;100.00;101475.75;6282484;22;47284;-87
2023/11/24 12:28:16;;;;;;;;;0.00;0.00;;;;;13.20;100.00;101472.13;6283076;22;45180;-86
2023/11/24 12:30:44;;;;;;;;;12.00;12.00;;;;;13.29;100.00;101459.63;6309429;22;45219;-88
2023/11/24 12:33:14;;;;;;;;;0.00;0.00;;;;;13.42;100.00;101473.25;6308522;22;45315;-87
2023/11/24 12:35:49;;;;;;;;;0.00;0.00;;;;;13.68;100.00;101455.94;6307708;22;47206;-87
2023/11/24 12:38:20;;;;;;;;;0.00;0.00;;;;;13.91;100.00;101443.00;6307235;22;45411;-87
2023/11/24 12:40:46;;;;;;;;;0.00;0.00;;;;;13.99;100.00;101442.75;6308865;22;45195;-85
2023/11/24 12:43:19;;;;;;;;;0.00;0.00;;;;;14.01;100.00;101443.56;6308894;22;45215;-87
2023/11/24 12:45:48;;;;;;;;;0.00;0.00;;;;;14.10;100.00;101440.63;6328855;22;46053;-85
2023/11/24 12:48:32;;;;;;;;;;;;;;;;;;;;;
2023/11/24 12:51:03;;;;;;;;;0.00;0.00;;;;;14.27;100.00;101429.59;6324882;22;68498;-86
2023/11/24 12:53:37;;;;;;;;;0.00;0.00;;;;;14.38;100.00;101425.78;6273940;22;45521;-84
2023/11/24 12:56:05;;;;;;;;;1.00;1.00;;;;;14.84;100.00;101432.06;6303418;22;46161;-86
2023/11/24 12:58:34;;;;;;;;;0.00;0.00;;;;;14.97;100.00;101432.47;6331788;22;45313;-84
2023/11/24 13:01:00;;;;;;;;;0.00;0.00;;;;;14.72;100.00;101435.97;6334982;22;45436;-89
2023/11/24 13:03:25;;;;;;;;;0.00;0.00;;;;;14.49;100.00;101421.88;6309819;22;45301;-84
2023/11/24 13:05:50;;;;;;;;;0.00;0.00;;;;;14.35;100.00;101428.50;6342810;22;58532;-84
2023/11/24 13:08:23;;;;;;;;;0.00;0.00;;;;;14.13;100.00;101445.78;6318227;22;45394;-90
2023/11/24 13:10:58;;;;;;;;;;;;;;;;;;;;;
2023/11/24 13:13:31;;;;;;;;;0.00;0.00;;;;;13.65;100.00;101448.16;6340917;22;70127;-88
2023/11/24 13:16:09;;;;;;;;;;;;;;;;;;;;;
2023/11/24 13:18:38;;;;;;;;;0.00;0.00;;;;;13.23;100.00;101453.75;6324140;22;72713;-89
2023/11/24 13:21:25;;;;;;;;;0.00;0.00;;;;;13.05;100.00;101452.50;6302819;22;45801;-86
2023/11/24 13:23:50;;;;;;;;;0.00;0.00;;;;;12.86;100.00;101444.31;6285815;22;45275;-88
2023/11/24 13:26:16;;;;;;;;;0.00;0.00;;;;;12.73;100.00;101439.41;6337740;22;46415;-91
2023/11/24 13:28:41;;;;;;;;;0.00;0.00;;;;;12.61;100.00;101444.97;6310790;22;45289;-89
2023/11/24 13:31:06;;;;;;;;;0.00;0.00;;;;;12.58;100.00;101447.66;6310830;22;45198;-89
2023/11/24 13:33:37;;;;;;;;;0.75;0.00;;;;;12.57;100.00;101448.53;6289088;22;45171;-93
2023/11/24 13:36:55;;;;;;;;;;;;;;;;;;;;;
2023/11/24 13:39:26;;;;;;;;;0.00;0.00;;;;;12.28;100.00;101442.31;6332905;22;73984;-89
2023/11/24 13:42:00;;;;;;;;;0.00;0.00;;;;;12.19;100.00;101445.16;6351853;22;45214;-96
2023/11/24 13:44:29;;;;;;;;;0.00;0.00;;;;;12.13;100.00;101445.31;6315868;22;45291;-96
2023/11/24 13:46:56;;;;;;;;;0.00;0.00;;;;;12.05;100.00;101452.44;6286304;22;46443;-88
2023/11/24 13:49:22;;;;;;;;;0.00;0.00;;;;;11.92;100.00;101442.31;6309893;22;45296;-85
2023/11/24 13:51:48;;;;;;;;;0.00;0.00;;;;;11.80;100.00;101453.81;6309370;22;45272;-89
2023/11/24 13:54:13;;;;;;;;;0.00;0.00;;;;;11.70;100.00;101461.88;6310294;22;45350;-87
2023/11/24 13:56:44;;;;;;;;;0.00;0.00;;;;;11.61;100.00;101457.75;6338108;22;46104;-90
2023/11/24 13:59:38;;;;;;;;;;;;;;;;;;;;;
2023/11/24 14:02:05;;;;;;;;;0.00;0.00;;;;;11.54;100.00;101450.94;6329420;22;68464;-83
2023/11/24 14:04:34;;;;;;;;;0.00;0.00;;;;;11.63;100.00;101445.53;6333280;22;45420;-87
2023/11/24 14:07:00;;;;;;;;;0.00;0.00;;;;;11.63;100.00;101435.09;6309618;22;45391;-85
2023/11/24 14:09:31;;;;;;;;;0.00;0.00;;;;;11.62;100.00;101442.06;6308250;22;46786;-86
2023/11/24 14:12:00;;;;;;;;;0.00;0.00;;;;;11.68;100.00;101446.31;6336475;22;45233;-85
2023/11/24 14:14:27;;;;;;;;;0.00;0.00;;;;;11.74;100.00;101447.91;6334345;22;45563;-84
2023/11/24 14:16:52;;;;;;;;;0.00;0.00;;;;;11.76;100.00;101451.34;6308306;22;45430;-86
2023/11/24 14:19:18;;;;;;;;;0.00;0.00;;;;;11.74;100.00;101456.59;6306402;22;45301;-87
2023/11/24 14:21:43;;;;;;;;;0.00;0.00;;;;;11.77;100.00;101453.03;6335934;22;45246;-84
2023/11/24 14:24:11;;;;;;;;;0.00;0.00;;;;;11.78;100.00;101460.84;6335811;22;70938;-92
2023/11/24 14:26:37;;;;;;;;;0.00;0.00;;;;;11.77;100.00;101456.50;6334855;22;46605;-84
2023/11/24 14:29:06;;;;;;;;;0.00;0.00;;;;;11.69;100.00;101461.03;6335726;22;45349;-86
2023/11/24 14:31:32;;;;;;;;;0.00;0.00;;;;;11.64;100.00;101457.66;6309674;22;45321;-84
2023/11/24 14:34:01;;;;;;;;;0.00;0.00;;;;;11.62;100.00;101460.31;6335964;22;45510;-85
2023/11/24 14:36:30;;;;;;;;;1.00;1.00;;;;;11.58;100.00;101463.03;6308632;22;45690;-83
2023/11/24 14:38:56;;;;;;;;;0.00;0.00;;;;;11.58;100.00;101463.03;6308433;22;45277;-83
2023/11/24 14:41:22;;;;;;;;;0.00;0.00;;;;;11.59;100.00;101467.38;6336421;22;45319;-83
2023/11/24 14:43:48;;;;;;;;;0.00;0.00;;;;;11.58;100.00;101481.28;6308595;22;45451;-81
2023/11/24 14:46:14;;;;;;;;;0.00;0.00;;;;;11.54;100.00;101480.47;6308667;22;46853;-83
2023/11/24 14:48:43;;;;;;;;;0.00;0.00;;;;;11.55;100.00;101483.94;6335380;22;45678;-82
2023/11/24 14:51:11;;;;;;;;;0.00;0.00;;;;;11.51;100.00;101477.06;6337429;22;45556;-83
2023/11/24 14:53:38;;;;;;;;;0.00;0.00;;;;;11.47;100.00;101488.47;6336807;22;45388;-83
2023/11/24 14:56:07;;;;;;;;;0.00;0.00;;;;;11.43;100.00;101479.84;6336341;22;45440;-82
2023/11/24 14:58:39;;;;;;;;;0.00;0.00;;;;;11.42;100.00;101481.59;6335890;22;45277;-82
2023/11/24 15:01:04;;;;;;;;;0.00;0.00;;;;;11.41;100.00;101485.09;6308653;22;45267;-81
2023/11/24 15:03:35;;;;;;;;;0.00;0.00;;;;;11.38;100.00;101481.69;6336327;22;45459;-82
2023/11/24 15:06:05;;;;;;;;;0.00;0.00;;;;;11.33;100.00;101500.03;6335393;22;46464;-80
2023/11/24 15:08:31;;;;;;;;;0.00;0.00;;;;;11.27;100.00;101499.28;6336177;22;45237;-82
2023/11/24 15:10:56;;;;;;;;;0.00;0.00;;;;;11.29;100.00;101494.91;6334597;22;45354;-81
2023/11/24 15:13:22;;;;;;;;;0.00;0.00;;;;;11.29;100.00;101494.91;6335765;22;45305;-83
2023/11/24 15:15:48;;;;;;;;;0.00;0.00;;;;;11.19;100.00;101489.88;6336072;22;45243;-81
2023/11/24 15:18:19;;;;;;;;;0.00;0.00;;;;;11.19;100.00;101496.84;6335210;22;45342;-82
2023/11/24 15:20:44;;;;;;;;;0.00;0.00;;;;;11.14;100.00;101496.06;6336206;22;45405;-82
2023/11/24 15:23:11;;;;;;;;;0.00;0.00;;;;;11.17;100.00;101501.22;6335772;22;45365;-82
2023/11/24 15:25:52;;;;;;;;;0.00;0.00;;;;;11.14;100.00;101494.31;6333486;22;46039;-82
2023/11/24 15:28:22;;;;;;;;;0.00;0.00;;;;;11.16;100.00;101494.28;6335585;22;45310;-82
2023/11/24 15:30:51;;;;;;;;;0.00;0.00;;;;;11.06;100.00;101491.00;6308722;22;45251;-81
2023/11/24 15:33:30;;;;;;;;;0.00;0.00;;;;;11.10;100.00;101503.06;6335372;22;45514;-82
2023/11/24 15:35:55;;;;;;;;;0.00;0.00;;;;;11.05;100.00;101502.31;6335548;22;45323;-81
2023/11/24 15:38:21;;;;;;;;;0.00;0.00;;;;;11.01;100.00;101500.63;6334684;22;71303;-82
2023/11/24 15:40:50;;;;;;;;;0.00;0.00;;;;;11.02;100.00;101510.19;6308616;22;45387;-81
2023/11/24 15:43:23;;;;;;;;;0.00;0.00;;;;;10.98;100.00;101505.94;6308399;22;45302;-81
2023/11/24 15:45:54;;;;;;;;;0.00;0.00;;;;;10.99;100.00;101510.22;6334993;22;46152;-81
2023/11/24 15:48:21;;;;;;;;;0.00;0.00;;;;;10.99;100.00;101516.28;6307284;22;45290;-81
2023/11/24 15:50:47;;;;;;;;;0.00;0.00;;;;;10.95;100.00;101516.38;6309014;22;45287;-81
2023/11/24 15:53:13;;;;;;;;;0.00;0.00;;;;;10.94;100.00;101517.25;6335651;22;45310;-81
2023/11/24 15:55:44;;;;;;;;;0.00;0.00;;;;;10.92;100.00;101516.44;6307714;22;46124;-81
2023/11/24 15:58:12;;;;;;;;;0.00;0.00;;;;;10.89;100.00;101524.31;6336556;22;45281;-82
2023/11/24 16:00:40;;;;;;;;;0.00;0.00;;;;;10.88;100.00;101518.22;6334651;22;45289;-84
2023/11/24 16:03:09;;;;;;;;;0.00;0.00;;;;;10.82;100.00;101523.56;6306853;22;45424;-84
2023/11/24 16:05:40;;;;;;;;;0.00;0.00;;;;;10.76;100.00;101514.09;6307533;22;45348;-81
2023/11/24 16:08:07;;;;;;;;;0.00;0.00;;;;;10.73;100.00;101519.34;6335229;22;45362;-83
2023/11/24 16:10:40;;;;;;;;;0.00;0.00;;;;;10.71;100.00;101523.72;6306832;22;45589;-83
2023/11/24 16:13:06;;;;;;;;;0.00;0.00;;;;;10.72;100.00;101528.06;6329873;22;45604;-82
2023/11/24 16:15:32;;;;;;;;;0.00;0.00;;;;;10.64;100.00;101528.22;6329637;22;46426;-86
2023/11/24 16:17:57;;;;;;;;;0.00;0.00;;;;;10.68;100.00;101530.75;6336222;22;45310;-86
2023/11/24 16:20:23;;;;;;;;;0.00;0.00;;;;;10.57;100.00;101533.53;6308896;22;45321;-83
2023/11/24 16:22:49;;;;;;;;;0.00;0.00;;;;;10.59;100.00;101534.38;6336621;22;45530;-81
2023/11/24 16:25:14;;;;;;;;;0.00;0.00;;;;;10.54;100.00;101531.81;6336933;22;46328;-82
2023/11/24 16:27:40;;;;;;;;;0.00;0.00;;;;;10.55;100.00;101549.19;6336687;22;73217;-82
2023/11/24 16:30:06;;;;;;;;;0.00;0.00;;;;;10.55;100.00;101551.78;6337445;22;45294;-81
2023/11/24 16:32:32;;;;;;;;;0.00;0.00;;;;;10.51;100.00;101551.84;6336870;22;45445;-86
2023/11/24 16:35:04;;;;;;;;;0.00;0.00;;;;;10.53;100.00;101561.38;6309899;22;47130;-84
2023/11/24 16:37:32;;;;;;;;;0.00;0.00;;;;;10.52;100.00;101559.63;6347941;22;45242;-88
2023/11/24 16:39:57;;;;;;;;;0.00;0.00;;;;;10.54;100.00;101570.03;6338469;22;45220;-87
2023/11/24 16:42:22;;;;;;;;;0.00;0.00;;;;;10.52;100.00;101569.19;6334564;22;51124;-82
2023/11/24 16:44:51;;;;;;;;;0.00;0.00;;;;;10.52;100.00;101572.66;6335118;22;70463;-92
2023/11/24 16:47:17;;;;;;;;;0.00;0.00;;;;;10.49;100.00;101570.06;6305442;22;45312;-82
2023/11/24 16:49:42;;;;;;;;;0.00;0.00;;;;;10.46;100.00;101573.59;6336664;22;45299;-82
2023/11/24 16:52:08;;;;;;;;;0.00;0.00;;;;;10.41;100.00;101571.94;6309117;22;45416;-82
2023/11/24 16:54:33;;;;;;;;;0.00;0.00;;;;;10.40;100.00;101580.63;6335916;22;45400;-82
2023/11/24 16:56:58;;;;;;;;;0.00;0.00;;;;;10.37;100.00;101578.94;6308017;22;45352;-81
2023/11/24 16:59:24;;;;;;;;;0.00;0.00;;;;;10.28;100.00;101585.09;6306235;22;68183;-83
2023/11/24 17:01:49;;;;;;;;;0.00;0.00;;;;;10.27;100.00;101580.78;6335937;22;67174;-79
2023/11/24 17:04:15;;;;;;;;;0.75;0.75;;;;;10.24;100.00;101592.97;6336275;22;46229;-82
2023/11/24 17:26:49;;;;;;;;;0.00;0.00;;;;;9.41;100.00;101617.38;5069835;27;45320;-80
2023/11/24 17:29:15;;;;;;;;;0.00;0.00;;;;;9.46;100.00;101623.38;5033390;28;64588;-80
2023/11/24 17:31:44;;;;;;;;;10.00;0.00;;;;;9.48;100.00;101622.47;5053190;28;45226;-81
2023/11/24 17:52:43;;;;;;;;;0.00;0.00;;;;;9.47;100.00;101636.38;5067053;28;45521;-82
2023/11/24 17:55:09;;;;;;;;;0.00;0.00;;;;;9.57;100.00;101637.13;5030903;28;57560;-81
2023/11/24 17:57:37;;;;;;;;;0.00;0.00;;;;;9.59;100.00;101644.91;5052617;28;45307;-82
2023/11/24 18:00:08;;;;;;;;;0.00;0.00;;;;;9.60;100.00;101644.91;5050375;28;45474;-82
2023/11/24 18:02:33;;;;;;;;;0.00;0.00;;;;;9.63;100.00;101644.84;5047963;28;46371;-81
2023/11/24 18:04:59;;;;;;;;;0.33;0.33;;;;;9.60;100.00;101644.03;5032965;28;73050;-80
2023/11/24 18:07:25;;;;;;;;;0.00;0.00;;;;;9.55;100.00;101643.22;5051107;28;54101;-82
2023/11/24 18:09:52;;;;;;;;;0.00;0.00;;;;;9.49;100.00;101637.22;5034579;28;45168;-82
2023/11/24 18:12:17;;;;;;;;;0.00;0.00;;;;;9.44;100.00;101641.59;5033919;28;47512;-84
2023/11/24 18:14:42;;;;;;;;;0.00;0.00;;;;;9.38;100.00;101641.66;5050272;28;67017;-82
2023/11/24 18:17:07;;;;;;;;;0.00;0.00;;;;;9.39;100.00;101647.69;5051568;28;69281;-82
2023/11/24 18:19:33;;;;;;;;;0.00;0.00;;;;;9.29;100.00;101645.19;5038530;28;70837;-84
2023/11/24 18:21:59;;;;;;;;;0.00;0.00;;;;;9.18;100.00;101641.84;5017353;28;46312;-83
2023/11/24 18:24:25;;;;;;;;;0.00;0.00;;;;;9.12;100.00;101641.88;5050210;28;66414;-84
2023/11/24 18:26:53;;;;;;;;;0.00;0.00;;;;;9.09;100.00;101640.16;5036193;28;45391;-88
2023/11/24 18:29:20;;;;;;;;;0.00;0.00;;;;;9.10;100.00;101641.00;5016814;28;66373;-86
2023/11/24 18:31:47;;;;;;;;;0.00;0.00;;;;;9.07;100.00;101641.91;5030141;28;70487;-85
2023/11/24 18:34:12;;;;;;;;;0.00;0.00;;;;;9.05;100.00;101648.88;5024389;28;45340;-85
2023/11/24 18:36:38;;;;;;;;;0.00;0.00;;;;;9.04;100.00;101647.13;5034451;28;45405;-84
2023/11/24 18:39:03;;;;;;;;;0.00;0.00;;;;;9.02;100.00;101651.47;5030219;28;56943;-86
2023/11/24 18:41:29;;;;;;;;;0.00;0.00;;;;;8.99;100.00;101654.13;5013931;28;45391;-84
2023/11/24 18:43:54;;;;;;;;;0.00;0.00;;;;;8.92;100.00;101670.59;5008747;28;45328;-84
2023/11/24 18:46:20;;;;;;;;;0.00;0.00;;;;;8.84;100.00;101662.00;5023903;28;45617;-84
2023/11/24 18:48:45;;;;;;;;;0.00;0.00;;;;;8.80;100.00;101673.28;5052181;28;45532;-84
2023/11/24 18:51:11;;;;;;;;;0.00;0.00;;;;;8.76;100.00;101661.19;5029909;28;45574;-83
2023/11/24 18:53:38;;;;;;;;;0.00;0.00;;;;;8.71;100.00;101669.88;5011611;28;45470;-82
2023/11/24 18:56:04;;;;;;;;;0.00;0.00;;;;;8.70;100.00;101668.13;4979447;28;45340;-82
2023/11/24 18:58:29;;;;;;;;;0.00;0.00;;;;;8.66;100.00;101670.78;5002838;28;45850;-83
2023/11/24 19:00:55;;;;;;;;;0.00;0.00;;;;;8.68;100.00;101671.63;4997081;28;74066;-83
2023/11/24 19:03:20;;;;;;;;;0.00;0.00;;;;;8.61;100.00;101670.78;5016726;28;45356;-82
2023/11/24 19:05:45;;;;;;;;;0.00;0.00;;;;;8.60;100.00;101674.28;5000085;28;45564;-82
2023/11/24 19:08:11;;;;;;;;;3.00;3.00;;;;;8.60;100.00;101665.59;4998212;28;45458;-82
2023/11/24 19:10:37;;;;;;;;;0.00;0.00;;;;;8.60;100.00;101668.19;4997475;28;47263;-82
2023/11/24 19:13:03;;;;;;;;;0.00;0.00;;;;;8.51;100.00;101676.91;4996523;28;45401;-82
2023/11/24 19:15:28;;;;;;;;;0.00;0.00;;;;;8.52;100.00;101682.09;4998229;28;45265;-82
2023/11/24 19:17:54;;;;;;;;;0.00;0.00;;;;;8.49;100.00;101687.31;4996059;28;45395;-82
2023/11/24 19:20:19;;;;;;;;;0.00;0.00;;;;;8.48;100.00;101684.72;4992594;28;49854;-82
2023/11/24 19:22:45;;;;;;;;;2.00;2.00;;;;;8.43;100.00;101676.09;4976537;28;45504;-83
2023/11/24 19:25:10;;;;;;;;;0.00;0.00;;;;;8.40;100.00;101681.28;4977492;28;45371;-82
2023/11/24 19:27:36;;;;;;;;;0.00;0.00;;;;;8.36;100.00;101677.81;4977941;28;45505;-82
2023/11/24 19:30:01;;;;;;;;;0.00;0.00;;;;;8.37;100.00;101676.94;4960807;28;47274;-82
2023/11/24 19:32:27;;;;;;;;;0.00;0.00;;;;;8.34;100.00;101684.75;4978317;28;45344;-82
2023/11/24 19:34:53;;;;;;;;;0.00;0.00;;;;;8.32;100.00;101676.09;4978324;28;45356;-82
2023/11/24 19:37:19;;;;;;;;;0.00;0.00;;;;;8.28;100.00;101672.69;4976735;28;45482;-83
2023/11/24 19:39:45;;;;;;;;;0.00;0.00;;;;;8.28;100.00;101679.56;4959518;28;76332;-83
2023/11/24 19:42:10;;;;;;;;;0.00;0.00;;;;;8.23;100.00;101670.97;4959123;28;45563;-82
2023/11/24 19:44:37;;;;;;;;;0.00;0.00;;;;;8.24;100.00;101689.09;4975677;28;45572;-83
2023/11/24 19:47:08;;;;;;;;;0.00;0.00;;;;;8.22;100.00;101677.88;4988752;28;45649;-82
2023/11/24 19:49:35;;;;;;;;;0.00;0.00;;;;;8.17;100.00;101668.38;4996686;28;45901;-82
2023/11/24 19:52:00;;;;;;;;;0.00;0.00;;;;;8.17;100.00;101678.75;5024613;28;45237;-83
2023/11/24 19:54:25;;;;;;;;;0.00;0.00;;;;;8.16;100.00;101685.69;5033803;28;69024;-83
2023/11/24 19:56:51;;;;;;;;;0.00;0.00;;;;;8.10;100.00;101683.97;5018303;28;45591;-83
2023/11/24 19:59:16;;;;;;;;;0.00;0.00;;;;;8.10;100.00;101688.31;5016996;28;75623;-82
2023/11/24 20:01:41;;;;;;;;;0.00;0.00;;;;;8.07;100.00;101683.97;5014487;28;67298;-83
2023/11/24 20:04:07;;;;;;;;;2.33;2.33;;;;;8.01;100.00;101684.00;4993915;28;66962;-82
2023/11/24 20:06:32;;;;;;;;;0.00;0.00;;;;;7.94;100.00;101688.34;5034986;28;59828;-82
2023/11/24 20:08:58;;;;;;;;;0.00;0.00;;;;;7.92;100.00;101705.63;5036006;28;46211;-83
2023/11/24 20:11:24;;;;;;;;;0.00;0.00;;;;;7.99;100.00;101693.53;5035606;28;45582;-83